Genmar Spyridon — V7BY9 — position and weather

sailwx.info

Track history (hours):
 
Tides and Currents Weather Stations Pressure Air Temp Water Temp Dewpoint Dewpoint Depression Visibility Wind Speed Wind Dir Waves Ship Positions

Genmar Spyridon

Last reported at 2014-Sep-30 09:28 UTC. Time now 2014-Sep-30 10:14 UTC.
Position N 54°03' E 007°30'.

Length 274 m; draft 9 m.

Type: Tanker. MMSI: 538001404.

Date/timePositionNaut miles runAvg speedWind from/ knotsBaromVisibWave heightAir tempDewpointWater temp
2014-Sep-30 09:28N 54°03' E 007°30'0 0.1
2014-Sep-30 08:31N 54°03' E 007°30'0 0.1
2014-Sep-30 07:31N 54°03' E 007°29'0 0.1
2014-Sep-30 06:31N 54°03' E 007°29'0 0.3
2014-Sep-30 05:31N 54°02' E 007°30'7 7.1
2014-Sep-30 04:33N 54°02' E 007°41'1312.7
2014-Sep-30 03:33N 54°02' E 008°03'1313.1
2014-Sep-30 02:33N 53°59' E 008°25'1211.7
2014-Sep-30 01:34N 53°53' E 008°42'1010.0
2014-Sep-30 00:33N 53°51' E 008°59'7 7.2
2014-Sep-29 23:33N 53°53' E 009°10'0 0.0
2014-Sep-28 18:33N 53°53' E 009°10'0 0.0
2014-Sep-28 17:33N 53°53' E 009°10'3 3.3
2014-Sep-28 16:31N 53°52' E 009°05'1111.8
2014-Sep-28 15:33N 53°51' E 008°45'1312.6
2014-Sep-28 14:33N 53°59' E 008°28'1313.3
2014-Sep-28 13:33N 53°59' E 008°06'3 2.7
2014-Sep-28 12:33N 54°00' E 008°02'5 4.6
2014-Sep-28 11:33N 54°03' E 007°55'8 7.6
2014-Sep-28 10:33N 54°05' E 007°42'7 7.2
2014-Sep-28 09:33N 54°02' E 007°31'0 0.1
2014-Sep-28 08:30N 54°02' E 007°31'0 0.1
2014-Sep-28 07:33N 54°02' E 007°31'0 0.1
2014-Sep-28 06:30N 54°02' E 007°31'0 0.0
2014-Sep-28 05:21N 54°02' E 007°31'0 0.0
2014-Sep-28 04:30N 54°02' E 007°31'0 0.1
2014-Sep-28 03:24N 54°02' E 007°31'0 0.1
2014-Sep-28 02:33N 54°02' E 007°31'0 0.0
2014-Sep-28 01:34N 54°02' E 007°31'0 0.0
2014-Sep-28 00:29N 54°02' E 007°31'0 0.0
2014-Sep-27 23:29N 54°02' E 007°31'0 0.0
2014-Sep-27 22:27N 54°02' E 007°31'0 0.0
2014-Sep-27 21:33N 54°02' E 007°31'0 0.0
2014-Sep-27 20:33N 54°02' E 007°31'0 0.0
2014-Sep-27 19:33N 54°02' E 007°31'0 0.2
2014-Sep-27 18:33N 54°02' E 007°31'0 0.1
2014-Sep-27 17:27N 54°02' E 007°31'0 0.0
2014-Sep-27 16:30N 54°02' E 007°31'0 0.1
2014-Sep-27 15:33N 54°02' E 007°31'0 0.2
2014-Sep-27 14:33N 54°02' E 007°31'0 0.0
2014-Sep-27 13:33N 54°02' E 007°31'0 0.0
2014-Sep-27 12:33N 54°02' E 007°31'0 0.0
2014-Sep-27 11:33N 54°02' E 007°31'0 0.0
2014-Sep-27 10:26N 54°02' E 007°31'0 0.0
2014-Sep-27 09:20N 54°02' E 007°31'0 0.0
2014-Sep-27 08:32N 54°02' E 007°31'0 0.0
2014-Sep-27 07:32N 54°02' E 007°31'0 0.0
2014-Sep-27 06:29N 54°02' E 007°31'0 0.1
2014-Sep-27 05:20N 54°02' E 007°31'0 0.0
2014-Sep-27 04:32N 54°02' E 007°31'0 0.0
2014-Sep-27 03:26N 54°02' E 007°31'0 0.1
2014-Sep-27 02:32N 54°02' E 007°31'0 0.0
2014-Sep-27 01:32N 54°02' E 007°31'0 0.0
2014-Sep-27 00:29N 54°02' E 007°31'0 0.0
2014-Sep-26 23:32N 54°02' E 007°31'0 0.0
2014-Sep-26 22:26N 54°02' E 007°31'0 0.1
2014-Sep-26 21:29N 54°02' E 007°31'0 0.0
2014-Sep-26 20:17N 54°02' E 007°31'0 0.0
2014-Sep-26 19:32N 54°02' E 007°31'0 0.0
2014-Sep-26 18:29N 54°02' E 007°31'0 0.0
2014-Sep-26 17:29N 54°02' E 007°31'0 0.0
2014-Sep-26 16:32N 54°02' E 007°31'0 0.1
2014-Sep-26 15:29N 54°02' E 007°31'0 0.0
2014-Sep-26 14:32N 54°02' E 007°31'0 0.1
2014-Sep-26 13:23N 54°02' E 007°31'0 0.1
2014-Sep-26 12:23N 54°02' E 007°31'0 0.0
2014-Sep-26 11:26N 54°02' E 007°31'0 0.0
2014-Sep-26 10:26N 54°02' E 007°31'0 0.0
2014-Sep-26 09:29N 54°02' E 007°31'0 0.0
2014-Sep-26 08:32N 54°02' E 007°31'0 0.0
2014-Sep-26 07:29N 54°02' E 007°31'0 0.1
2014-Sep-26 06:29N 54°02' E 007°31'0 0.1
2014-Sep-26 05:26N 54°02' E 007°31'0 0.0
2014-Sep-26 04:29N 54°02' E 007°31'0 0.1
2014-Sep-26 03:26N 54°02' E 007°31'0 0.0
2014-Sep-26 02:32N 54°02' E 007°31'0 0.0
2014-Sep-26 01:32N 54°02' E 007°31'0 0.1
2014-Sep-26 00:23N 54°02' E 007°31'0 0.0
2014-Sep-25 23:32N 54°02' E 007°31'0 0.0
2014-Sep-25 22:32N 54°02' E 007°31'0 0.0
2014-Sep-25 21:32N 54°02' E 007°31'0 0.0
2014-Sep-25 20:29N 54°02' E 007°31'0 0.0
2014-Sep-25 19:29N 54°02' E 007°31'0 0.0
2014-Sep-25 18:29N 54°02' E 007°31'0 0.0
2014-Sep-25 17:32N 54°02' E 007°31'0 0.0
2014-Sep-25 16:26N 54°02' E 007°31'0 0.0
2014-Sep-25 15:17N 54°02' E 007°31'0 0.0
2014-Sep-25 14:32N 54°02' E 007°31'0 0.0
2014-Sep-25 13:32N 54°02' E 007°31'0 0.1
2014-Sep-25 12:29N 54°02' E 007°31'0 0.1
2014-Sep-25 11:32N 54°02' E 007°31'0 0.1
2014-Sep-25 10:32N 54°02' E 007°31'0 0.0
2014-Sep-25 09:32N 54°02' E 007°31'0 0.0
2014-Sep-25 08:26N 54°02' E 007°31'0 0.1
2014-Sep-25 07:29N 54°02' E 007°31'0 0.0
2014-Sep-25 06:32N 54°02' E 007°31'0 0.0
2014-Sep-25 05:32N 54°02' E 007°31'0 0.0
2014-Sep-25 04:23N 54°02' E 007°31'0 0.0
2014-Sep-25 03:29N 54°02' E 007°31'0 0.0
2014-Sep-25 02:26N 54°02' E 007°31'0 0.1
2014-Sep-25 01:29N 54°02' E 007°31'0 0.0
2014-Sep-25 00:29N 54°02' E 007°31'0 0.0
2014-Sep-24 23:29N 54°02' E 007°31'0 0.0
2014-Sep-24 22:29N 54°02' E 007°31'0 0.0
2014-Sep-24 21:26N 54°02' E 007°31'0 0.0
2014-Sep-24 20:32N 54°02' E 007°31'0 0.0
2014-Sep-24 19:26N 54°02' E 007°31'0 0.0
2014-Sep-24 18:26N 54°02' E 007°31'0 0.1
2014-Sep-24 17:29N 54°02' E 007°31'0 0.2
2014-Sep-24 16:29N 54°02' E 007°31'0 0.1
2014-Sep-24 15:26N 54°02' E 007°31'0 0.0
2014-Sep-24 14:32N 54°02' E 007°31'0 0.0
2014-Sep-24 13:17N 54°02' E 007°31'0 0.1
2014-Sep-24 12:29N 54°02' E 007°31'0 0.0
2014-Sep-24 11:32N 54°02' E 007°31'0 0.0
2014-Sep-24 10:17N 54°02' E 007°31'0 0.0
2014-Sep-24 09:26N 54°02' E 007°31'0 0.0
2014-Sep-24 08:26N 54°02' E 007°31'0 0.0
2014-Sep-24 07:29N 54°02' E 007°31'0 0.0
2014-Sep-24 06:29N 54°02' E 007°31'0 0.0
2014-Sep-24 05:23N 54°02' E 007°31'0 0.1
2014-Sep-24 04:32N 54°02' E 007°31'0 0.0
2014-Sep-24 03:32N 54°02' E 007°31'0 0.0
2014-Sep-24 02:20N 54°02' E 007°31'0 0.0
2014-Sep-24 01:32N 54°02' E 007°31'0 0.0
2014-Sep-24 00:29N 54°02' E 007°31'0 0.0
2014-Sep-23 23:20N 54°02' E 007°31'0 0.0
2014-Sep-23 22:29N 54°02' E 007°31'0 0.0
2014-Sep-23 21:29N 54°02' E 007°31'0 0.0
2014-Sep-23 20:32N 54°02' E 007°31'0 0.0
2014-Sep-23 19:26N 54°02' E 007°31'0 0.0
2014-Sep-23 18:32N 54°02' E 007°31'0 0.0
2014-Sep-23 17:29N 54°02' E 007°31'0 0.0
2014-Sep-23 16:32N 54°02' E 007°31'0 0.1
2014-Sep-23 15:32N 54°02' E 007°31'0 0.1
2014-Sep-23 14:32N 54°02' E 007°31'0 0.0
2014-Sep-23 13:29N 54°02' E 007°31'0 0.1
2014-Sep-23 11:26N 54°02' E 007°31'0 0.1
2014-Sep-23 10:29N 54°02' E 007°31'0 0.1
2014-Sep-23 09:32N 54°02' E 007°31'0 0.0
2014-Sep-23 08:32N 54°02' E 007°31'0 0.0
2014-Sep-23 07:20N 54°02' E 007°31'0 0.0
2014-Sep-23 06:26N 54°02' E 007°31'0 0.1
2014-Sep-23 05:32N 54°02' E 007°31'0 0.1
2014-Sep-23 04:23N 54°02' E 007°31'0 0.1
2014-Sep-23 03:29N 54°02' E 007°31'0 0.0
2014-Sep-23 02:26N 54°02' E 007°31'0 0.0
2014-Sep-23 01:32N 54°02' E 007°31'0 0.1
2014-Sep-23 00:29N 54°02' E 007°31'0 0.0
2014-Sep-22 23:32N 54°02' E 007°31'0 0.0
2014-Sep-22 22:26N 54°02' E 007°31'0 0.0
2014-Sep-22 21:29N 54°02' E 007°31'0 0.0
2014-Sep-22 20:32N 54°02' E 007°31'0 0.0
2014-Sep-22 19:32N 54°02' E 007°31'0 0.0
2014-Sep-22 18:32N 54°02' E 007°31'0 0.1
2014-Sep-22 17:32N 54°02' E 007°31'0 0.0
2014-Sep-22 16:29N 54°02' E 007°31'0 0.1
2014-Sep-22 15:29N 54°02' E 007°31'0 0.0
2014-Sep-22 14:32N 54°02' E 007°31'0 0.0
2014-Sep-22 13:11N 54°02' E 007°31'0 0.0
2014-Sep-22 12:32N 54°02' E 007°31'0 0.0
2014-Sep-22 11:32N 54°02' E 007°31'0 0.0
2014-Sep-22 10:32N 54°02' E 007°31'0 0.0
2014-Sep-22 09:32N 54°02' E 007°31'0 0.0
2014-Sep-22 08:32N 54°02' E 007°31'0 0.0
2014-Sep-22 07:32N 54°02' E 007°31'0 0.0
2014-Sep-22 06:32N 54°02' E 007°31'0 0.1
2014-Sep-22 05:26N 54°02' E 007°31'0 0.0
2014-Sep-22 04:32N 54°02' E 007°31'0 0.0
2014-Sep-22 03:17N 54°02' E 007°31'0 0.0
2014-Sep-22 02:32N 54°02' E 007°31'0 0.0
2014-Sep-22 01:32N 54°02' E 007°31'0 0.0
2014-Sep-22 00:32N 54°02' E 007°31'0 0.1
2014-Sep-21 23:26N 54°02' E 007°31'0 0.2
2014-Sep-21 22:32N 54°02' E 007°31'0 0.0
2014-Sep-21 21:32N 54°02' E 007°31'0 0.0
2014-Sep-21 20:26N 54°02' E 007°31'0 0.0
2014-Sep-21 19:29N 54°02' E 007°31'0 0.0
2014-Sep-21 18:32N 54°02' E 007°31'0 0.1
2014-Sep-21 17:29N 54°02' E 007°31'0 0.0
2014-Sep-21 16:32N 54°02' E 007°31'0 0.1
2014-Sep-21 15:32N 54°02' E 007°31'0 0.0
2014-Sep-21 14:29N 54°02' E 007°31'0 0.0
2014-Sep-21 13:32N 54°02' E 007°31'0 0.0
2014-Sep-21 12:32N 54°02' E 007°31'0 0.0
2014-Sep-21 11:32N 54°02' E 007°31'0 0.0
2014-Sep-21 10:32N 54°02' E 007°31'0 0.0
2014-Sep-21 09:29N 54°02' E 007°31'0 0.0
2014-Sep-21 08:29N 54°02' E 007°31'0 0.0
2014-Sep-21 07:32N 54°02' E 007°31'0 0.0
2014-Sep-21 06:29N 54°02' E 007°31'0 0.1
2014-Sep-21 05:29N 54°02' E 007°31'0 0.1
2014-Sep-21 04:29N 54°02' E 007°31'0 0.1
2014-Sep-21 03:23N 54°02' E 007°31'0 0.0
2014-Sep-21 02:32N 54°02' E 007°31'0 0.0
2014-Sep-21 01:20N 54°02' E 007°31'0 0.1
2014-Sep-21 00:32N 54°02' E 007°30'0 0.1
2014-Sep-20 23:20N 54°02' E 007°30'0 0.0
2014-Sep-20 22:32N 54°02' E 007°31'0 0.1
2014-Sep-20 21:32N 54°02' E 007°31'0 0.1
2014-Sep-20 20:20N 54°02' E 007°31'0 0.0
2014-Sep-20 19:26N 54°02' E 007°31'0 0.0
2014-Sep-20 18:29N 54°02' E 007°31'0 0.0
2014-Sep-20 17:32N 54°02' E 007°31'0 0.1
2014-Sep-20 16:29N 54°02' E 007°31'0 0.2
2014-Sep-20 15:29N 54°02' E 007°30'0 0.1
2014-Sep-20 14:29N 54°02' E 007°30'0 0.0
2014-Sep-20 13:26N 54°02' E 007°30'0 0.0
2014-Sep-20 12:32N 54°02' E 007°30'0 0.0
2014-Sep-20 11:32N 54°02' E 007°30'0 0.0
2014-Sep-20 10:32N 54°02' E 007°30'0 0.2
2014-Sep-20 09:33N 54°02' E 007°31'  
Track history (hours):
 
Tides and Currents Weather Stations Pressure Air Temp Water Temp Dewpoint Dewpoint Depression Visibility Wind Speed Wind Dir Waves Ship Positions

Genmar Spyridon

Last reported at 2014-Sep-30 09:28 UTC. Time now 2014-Sep-30 10:14 UTC.
Position N 54°03' E 007°30'.

Length 274 m; draft 9 m.

Type: Tanker. MMSI: 538001404.

Date/timePositionNaut miles runAvg speedWind from/ knotsBaromVisibWave heightAir tempDewpointWater temp
2014-Sep-30 09:28N 54°03' E 007°30'0 0.1
2014-Sep-30 08:31N 54°03' E 007°30'0 0.1
2014-Sep-30 07:31N 54°03' E 007°29'0 0.1
2014-Sep-30 06:31N 54°03' E 007°29'0 0.3
2014-Sep-30 05:31N 54°02' E 007°30'7 7.1
2014-Sep-30 04:33N 54°02' E 007°41'1312.7
2014-Sep-30 03:33N 54°02' E 008°03'1313.1
2014-Sep-30 02:33N 53°59' E 008°25'1211.7
2014-Sep-30 01:34N 53°53' E 008°42'1010.0
2014-Sep-30 00:33N 53°51' E 008°59'7 7.2
2014-Sep-29 23:33N 53°53' E 009°10'0 0.0
2014-Sep-28 18:33N 53°53' E 009°10'0 0.0
2014-Sep-28 17:33N 53°53' E 009°10'3 3.3
2014-Sep-28 16:31N 53°52' E 009°05'1111.8
2014-Sep-28 15:33N 53°51' E 008°45'1312.6
2014-Sep-28 14:33N 53°59' E 008°28'1313.3
2014-Sep-28 13:33N 53°59' E 008°06'3 2.7
2014-Sep-28 12:33N 54°00' E 008°02'5 4.6
2014-Sep-28 11:33N 54°03' E 007°55'8 7.6
2014-Sep-28 10:33N 54°05' E 007°42'7 7.2
2014-Sep-28 09:33N 54°02' E 007°31'0 0.1
2014-Sep-28 08:30N 54°02' E 007°31'0 0.1
2014-Sep-28 07:33N 54°02' E 007°31'0 0.1
2014-Sep-28 06:30N 54°02' E 007°31'0 0.0
2014-Sep-28 05:21N 54°02' E 007°31'0 0.0
2014-Sep-28 04:30N 54°02' E 007°31'0 0.1
2014-Sep-28 03:24N 54°02' E 007°31'0 0.1
2014-Sep-28 02:33N 54°02' E 007°31'0 0.0
2014-Sep-28 01:34N 54°02' E 007°31'0 0.0
2014-Sep-28 00:29N 54°02' E 007°31'0 0.0
2014-Sep-27 23:29N 54°02' E 007°31'0 0.0
2014-Sep-27 22:27N 54°02' E 007°31'0 0.0
2014-Sep-27 21:33N 54°02' E 007°31'0 0.0
2014-Sep-27 20:33N 54°02' E 007°31'0 0.0
2014-Sep-27 19:33N 54°02' E 007°31'0 0.2
2014-Sep-27 18:33N 54°02' E 007°31'0 0.1
2014-Sep-27 17:27N 54°02' E 007°31'0 0.0
2014-Sep-27 16:30N 54°02' E 007°31'0 0.1
2014-Sep-27 15:33N 54°02' E 007°31'0 0.2
2014-Sep-27 14:33N 54°02' E 007°31'0 0.0
2014-Sep-27 13:33N 54°02' E 007°31'0 0.0
2014-Sep-27 12:33N 54°02' E 007°31'0 0.0
2014-Sep-27 11:33N 54°02' E 007°31'0 0.0
2014-Sep-27 10:26N 54°02' E 007°31'0 0.0
2014-Sep-27 09:20N 54°02' E 007°31'0 0.0
2014-Sep-27 08:32N 54°02' E 007°31'0 0.0
2014-Sep-27 07:32N 54°02' E 007°31'0 0.0
2014-Sep-27 06:29N 54°02' E 007°31'0 0.1
2014-Sep-27 05:20N 54°02' E 007°31'0 0.0
2014-Sep-27 04:32N 54°02' E 007°31'0 0.0
2014-Sep-27 03:26N 54°02' E 007°31'0 0.1
2014-Sep-27 02:32N 54°02' E 007°31'0 0.0
2014-Sep-27 01:32N 54°02' E 007°31'0 0.0
2014-Sep-27 00:29N 54°02' E 007°31'0 0.0
2014-Sep-26 23:32N 54°02' E 007°31'0 0.0
2014-Sep-26 22:26N 54°02' E 007°31'0 0.1
2014-Sep-26 21:29N 54°02' E 007°31'0 0.0
2014-Sep-26 20:17N 54°02' E 007°31'0 0.0
2014-Sep-26 19:32N 54°02' E 007°31'0 0.0
2014-Sep-26 18:29N 54°02' E 007°31'0 0.0
2014-Sep-26 17:29N 54°02' E 007°31'0 0.0
2014-Sep-26 16:32N 54°02' E 007°31'0 0.1
2014-Sep-26 15:29N 54°02' E 007°31'0 0.0
2014-Sep-26 14:32N 54°02' E 007°31'0 0.1
2014-Sep-26 13:23N 54°02' E 007°31'0 0.1
2014-Sep-26 12:23N 54°02' E 007°31'0 0.0
2014-Sep-26 11:26N 54°02' E 007°31'0 0.0
2014-Sep-26 10:26N 54°02' E 007°31'0 0.0
2014-Sep-26 09:29N 54°02' E 007°31'0 0.0
2014-Sep-26 08:32N 54°02' E 007°31'0 0.0
2014-Sep-26 07:29N 54°02' E 007°31'0 0.1
2014-Sep-26 06:29N 54°02' E 007°31'0 0.1
2014-Sep-26 05:26N 54°02' E 007°31'0 0.0
2014-Sep-26 04:29N 54°02' E 007°31'0 0.1
2014-Sep-26 03:26N 54°02' E 007°31'0 0.0
2014-Sep-26 02:32N 54°02' E 007°31'0 0.0
2014-Sep-26 01:32N 54°02' E 007°31'0 0.1
2014-Sep-26 00:23N 54°02' E 007°31'0 0.0
2014-Sep-25 23:32N 54°02' E 007°31'0 0.0
2014-Sep-25 22:32N 54°02' E 007°31'0 0.0
2014-Sep-25 21:32N 54°02' E 007°31'0 0.0
2014-Sep-25 20:29N 54°02' E 007°31'0 0.0
2014-Sep-25 19:29N 54°02' E 007°31'0 0.0
2014-Sep-25 18:29N 54°02' E 007°31'0 0.0
2014-Sep-25 17:32N 54°02' E 007°31'0 0.0
2014-Sep-25 16:26N 54°02' E 007°31'0 0.0
2014-Sep-25 15:17N 54°02' E 007°31'0 0.0
2014-Sep-25 14:32N 54°02' E 007°31'0 0.0
2014-Sep-25 13:32N 54°02' E 007°31'0 0.1
2014-Sep-25 12:29N 54°02' E 007°31'0 0.1
2014-Sep-25 11:32N 54°02' E 007°31'0 0.1
2014-Sep-25 10:32N 54°02' E 007°31'0 0.0
2014-Sep-25 09:32N 54°02' E 007°31'0 0.0
2014-Sep-25 08:26N 54°02' E 007°31'0 0.1
2014-Sep-25 07:29N 54°02' E 007°31'0 0.0
2014-Sep-25 06:32N 54°02' E 007°31'0 0.0
2014-Sep-25 05:32N 54°02' E 007°31'0 0.0
2014-Sep-25 04:23N 54°02' E 007°31'0 0.0
2014-Sep-25 03:29N 54°02' E 007°31'0 0.0
2014-Sep-25 02:26N 54°02' E 007°31'0 0.1
2014-Sep-25 01:29N 54°02' E 007°31'0 0.0
2014-Sep-25 00:29N 54°02' E 007°31'0 0.0
2014-Sep-24 23:29N 54°02' E 007°31'0 0.0
2014-Sep-24 22:29N 54°02' E 007°31'0 0.0
2014-Sep-24 21:26N 54°02' E 007°31'0 0.0
2014-Sep-24 20:32N 54°02' E 007°31'0 0.0
2014-Sep-24 19:26N 54°02' E 007°31'0 0.0
2014-Sep-24 18:26N 54°02' E 007°31'0 0.1
2014-Sep-24 17:29N 54°02' E 007°31'0 0.2
2014-Sep-24 16:29N 54°02' E 007°31'0 0.1
2014-Sep-24 15:26N 54°02' E 007°31'0 0.0
2014-Sep-24 14:32N 54°02' E 007°31'0 0.0
2014-Sep-24 13:17N 54°02' E 007°31'0 0.1
2014-Sep-24 12:29N 54°02' E 007°31'0 0.0
2014-Sep-24 11:32N 54°02' E 007°31'0 0.0
2014-Sep-24 10:17N 54°02' E 007°31'0 0.0
2014-Sep-24 09:26N 54°02' E 007°31'0 0.0
2014-Sep-24 08:26N 54°02' E 007°31'0 0.0
2014-Sep-24 07:29N 54°02' E 007°31'0 0.0
2014-Sep-24 06:29N 54°02' E 007°31'0 0.0
2014-Sep-24 05:23N 54°02' E 007°31'0 0.1
2014-Sep-24 04:32N 54°02' E 007°31'0 0.0
2014-Sep-24 03:32N 54°02' E 007°31'0 0.0
2014-Sep-24 02:20N 54°02' E 007°31'0 0.0
2014-Sep-24 01:32N 54°02' E 007°31'0 0.0
2014-Sep-24 00:29N 54°02' E 007°31'0 0.0
2014-Sep-23 23:20N 54°02' E 007°31'0 0.0
2014-Sep-23 22:29N 54°02' E 007°31'0 0.0
2014-Sep-23 21:29N 54°02' E 007°31'0 0.0
2014-Sep-23 20:32N 54°02' E 007°31'0 0.0
2014-Sep-23 19:26N 54°02' E 007°31'0 0.0
2014-Sep-23 18:32N 54°02' E 007°31'0 0.0
2014-Sep-23 17:29N 54°02' E 007°31'0 0.0
2014-Sep-23 16:32N 54°02' E 007°31'0 0.1
2014-Sep-23 15:32N 54°02' E 007°31'0 0.1
2014-Sep-23 14:32N 54°02' E 007°31'0 0.0
2014-Sep-23 13:29N 54°02' E 007°31'0 0.1
2014-Sep-23 11:26N 54°02' E 007°31'0 0.1
2014-Sep-23 10:29N 54°02' E 007°31'0 0.1
2014-Sep-23 09:32N 54°02' E 007°31'0 0.0
2014-Sep-23 08:32N 54°02' E 007°31'0 0.0
2014-Sep-23 07:20N 54°02' E 007°31'0 0.0
2014-Sep-23 06:26N 54°02' E 007°31'0 0.1
2014-Sep-23 05:32N 54°02' E 007°31'0 0.1
2014-Sep-23 04:23N 54°02' E 007°31'0 0.1
2014-Sep-23 03:29N 54°02' E 007°31'0 0.0
2014-Sep-23 02:26N 54°02' E 007°31'0 0.0
2014-Sep-23 01:32N 54°02' E 007°31'0 0.1
2014-Sep-23 00:29N 54°02' E 007°31'0 0.0
2014-Sep-22 23:32N 54°02' E 007°31'0 0.0
2014-Sep-22 22:26N 54°02' E 007°31'0 0.0
2014-Sep-22 21:29N 54°02' E 007°31'0 0.0
2014-Sep-22 20:32N 54°02' E 007°31'0 0.0
2014-Sep-22 19:32N 54°02' E 007°31'0 0.0
2014-Sep-22 18:32N 54°02' E 007°31'0 0.1
2014-Sep-22 17:32N 54°02' E 007°31'0 0.0
2014-Sep-22 16:29N 54°02' E 007°31'0 0.1
2014-Sep-22 15:29N 54°02' E 007°31'0 0.0
2014-Sep-22 14:32N 54°02' E 007°31'0 0.0
2014-Sep-22 13:11N 54°02' E 007°31'0 0.0
2014-Sep-22 12:32N 54°02' E 007°31'0 0.0
2014-Sep-22 11:32N 54°02' E 007°31'0 0.0
2014-Sep-22 10:32N 54°02' E 007°31'0 0.0
2014-Sep-22 09:32N 54°02' E 007°31'0 0.0
2014-Sep-22 08:32N 54°02' E 007°31'0 0.0
2014-Sep-22 07:32N 54°02' E 007°31'0 0.0
2014-Sep-22 06:32N 54°02' E 007°31'0 0.1
2014-Sep-22 05:26N 54°02' E 007°31'0 0.0
2014-Sep-22 04:32N 54°02' E 007°31'0 0.0
2014-Sep-22 03:17N 54°02' E 007°31'0 0.0
2014-Sep-22 02:32N 54°02' E 007°31'0 0.0
2014-Sep-22 01:32N 54°02' E 007°31'0 0.0
2014-Sep-22 00:32N 54°02' E 007°31'0 0.1
2014-Sep-21 23:26N 54°02' E 007°31'0 0.2
2014-Sep-21 22:32N 54°02' E 007°31'0 0.0
2014-Sep-21 21:32N 54°02' E 007°31'0 0.0
2014-Sep-21 20:26N 54°02' E 007°31'0 0.0
2014-Sep-21 19:29N 54°02' E 007°31'0 0.0
2014-Sep-21 18:32N 54°02' E 007°31'0 0.1
2014-Sep-21 17:29N 54°02' E 007°31'0 0.0
2014-Sep-21 16:32N 54°02' E 007°31'0 0.1
2014-Sep-21 15:32N 54°02' E 007°31'0 0.0
2014-Sep-21 14:29N 54°02' E 007°31'0 0.0
2014-Sep-21 13:32N 54°02' E 007°31'0 0.0
2014-Sep-21 12:32N 54°02' E 007°31'0 0.0
2014-Sep-21 11:32N 54°02' E 007°31'0 0.0
2014-Sep-21 10:32N 54°02' E 007°31'0 0.0
2014-Sep-21 09:29N 54°02' E 007°31'0 0.0
2014-Sep-21 08:29N 54°02' E 007°31'0 0.0
2014-Sep-21 07:32N 54°02' E 007°31'0 0.0
2014-Sep-21 06:29N 54°02' E 007°31'0 0.1
2014-Sep-21 05:29N 54°02' E 007°31'0 0.1
2014-Sep-21 04:29N 54°02' E 007°31'0 0.1
2014-Sep-21 03:23N 54°02' E 007°31'0 0.0
2014-Sep-21 02:32N 54°02' E 007°31'0 0.0
2014-Sep-21 01:20N 54°02' E 007°31'0 0.1
2014-Sep-21 00:32N 54°02' E 007°30'0 0.1
2014-Sep-20 23:20N 54°02' E 007°30'0 0.0
2014-Sep-20 22:32N 54°02' E 007°31'0 0.1
2014-Sep-20 21:32N 54°02' E 007°31'0 0.1
2014-Sep-20 20:20N 54°02' E 007°31'0 0.0
2014-Sep-20 19:26N 54°02' E 007°31'0 0.0
2014-Sep-20 18:29N 54°02' E 007°31'0 0.0
2014-Sep-20 17:32N 54°02' E 007°31'0 0.1
2014-Sep-20 16:29N 54°02' E 007°31'0 0.2
2014-Sep-20 15:29N 54°02' E 007°30'0 0.1
2014-Sep-20 14:29N 54°02' E 007°30'0 0.0
2014-Sep-20 13:26N 54°02' E 007°30'0 0.0
2014-Sep-20 12:32N 54°02' E 007°30'0 0.0
2014-Sep-20 11:32N 54°02' E 007°30'0 0.0
2014-Sep-20 10:32N 54°02' E 007°30'0 0.2
2014-Sep-20 09:33N 54°02' E 007°31'  

Dump ship's entire track history